createdAt,value
2022-09-05T00:00:19.381Z,92.80
2022-09-05T00:03:20.080Z,92.63
2022-09-05T00:06:01.968Z,92.79
2022-09-05T00:08:42.681Z,92.87
2022-09-05T00:11:40.659Z,93.27
2022-09-05T00:15:16.685Z,93.61
2022-09-05T00:19:28.444Z,92.82
2022-09-05T00:24:20.309Z,93.50
2022-09-05T00:24:54.742Z,93.99
2022-09-05T00:27:32.099Z,93.58
2022-09-05T00:31:51.533Z,93.46
2022-09-05T00:33:17.874Z,94.42
2022-09-05T00:36:08.729Z,94.24
2022-09-05T00:38:40.961Z,94.18
2022-09-05T00:41:13.634Z,94.39
2022-09-05T00:43:42.316Z,95.18
2022-09-05T00:46:26.585Z,95.37
2022-09-05T00:49:28.787Z,95.56
2022-09-05T00:51:58.821Z,95.84
2022-09-05T00:54:47.105Z,96.07
2022-09-05T00:57:30.610Z,95.85
2022-09-05T01:00:18.172Z,96.51
2022-09-05T01:02:51.609Z,96.29
2022-09-05T01:05:44.934Z,97.50
2022-09-05T01:08:46.198Z,96.78
2022-09-05T01:11:35.682Z,96.76
2022-09-05T01:14:30.678Z,97.32
2022-09-05T01:17:22.047Z,97.24
2022-09-05T01:20:29.912Z,97.71
2022-09-05T01:23:27.217Z,97.80
2022-09-05T01:26:07.803Z,97.56
2022-09-05T01:29:16.217Z,98.64
2022-09-05T01:32:15.315Z,98.13
2022-09-05T01:34:57.649Z,98.64
2022-09-05T01:37:48.509Z,97.91
2022-09-05T01:40:51.565Z,98.50
2022-09-05T01:44:00.013Z,98.65
2022-09-05T01:46:39.204Z,98.70
2022-09-05T01:49:53.247Z,98.88
2022-09-05T01:53:04.623Z,99.63
2022-09-05T01:56:04.353Z,99.59
2022-09-05T01:58:57.957Z,100.00
2022-09-05T02:01:39.902Z,100.00
2022-09-05T02:04:12.858Z,99.87
2022-09-05T02:07:19.354Z,99.91
2022-09-05T02:10:07.978Z,100.00
2022-09-05T02:12:43.997Z,99.45
2022-09-05T02:15:37.852Z,100.00
2022-09-05T02:18:11.094Z,99.99
2022-09-05T02:20:41.102Z,100.00
2022-09-05T02:23:41.822Z,100.00
2022-09-05T02:26:24.194Z,100.00
2022-09-05T02:29:10.774Z,100.00
2022-09-05T02:31:49.367Z,100.00
2022-09-05T02:34:25.522Z,100.00
2022-09-05T02:37:03.310Z,100.00
2022-09-05T02:45:03.689Z,100.00
2022-09-05T02:45:19.265Z,100.00
2022-09-05T02:45:49.302Z,100.00
2022-09-05T02:48:31.752Z,100.00
2022-09-05T02:57:25.701Z,100.00
2022-09-05T02:57:35.412Z,100.00
2022-09-05T02:58:04.561Z,100.00
2022-09-05T02:59:54.187Z,100.00
2022-09-05T03:02:39.922Z,100.00
2022-09-05T03:05:25.258Z,100.00
2022-09-05T03:07:58.514Z,100.00
2022-09-05T03:10:55.372Z,100.00
2022-09-05T03:14:06.398Z,100.00
2022-09-05T03:17:24.466Z,100.00
2022-09-05T03:20:32.567Z,100.00
2022-09-05T03:23:23.494Z,100.00
2022-09-05T03:26:27.238Z,100.00
2022-09-05T03:29:13.077Z,100.00
2022-09-05T03:32:06.462Z,100.00
2022-09-05T03:35:16.986Z,100.00
2022-09-05T03:38:34.836Z,100.00
2022-09-05T03:41:16.627Z,100.00
2022-09-05T03:43:55.811Z,100.00
2022-09-05T03:47:20.256Z,100.00
2022-09-05T03:53:16.415Z,100.00
2022-09-05T03:57:17.339Z,100.00
2022-09-05T03:57:20.297Z,100.00
2022-09-05T03:59:44.899Z,100.00
2022-09-05T04:03:10.593Z,100.00
2022-09-05T04:08:13.749Z,100.00
2022-09-05T04:08:31.880Z,100.00
2022-09-05T04:11:02.179Z,100.00
2022-09-05T04:13:46.429Z,100.00
2022-09-05T04:16:20.261Z,100.00
2022-09-05T04:19:18.461Z,100.00
2022-09-05T04:21:59.277Z,100.00
2022-09-05T04:24:53.079Z,100.00
2022-09-05T04:27:49.882Z,100.00
2022-09-05T04:30:40.573Z,100.00
2022-09-05T04:33:35.844Z,100.00
2022-09-05T04:36:25.103Z,100.00
2022-09-05T04:39:19.829Z,100.00
2022-09-05T04:41:51.518Z,100.00
2022-09-05T04:44:26.555Z,100.00
2022-09-05T04:47:28.004Z,100.00
2022-09-05T04:50:23.334Z,100.00
2022-09-05T04:53:26.947Z,100.00
2022-09-05T04:55:57.871Z,100.00
2022-09-05T05:00:15.462Z,100.00
2022-09-05T05:06:13.106Z,100.00
2022-09-05T05:06:16.121Z,100.00
2022-09-05T05:08:01.113Z,100.00
2022-09-05T05:15:21.737Z,100.00
2022-09-05T05:17:58.392Z,100.00
2022-09-05T05:18:10.906Z,100.00
2022-09-05T05:19:27.201Z,100.00
2022-09-05T05:21:58.109Z,100.00
2022-09-05T05:24:35.300Z,100.00
2022-09-05T05:27:25.818Z,99.60
2022-09-05T05:29:59.622Z,100.00
2022-09-05T05:32:45.913Z,100.00
2022-09-05T05:35:13.563Z,99.62
2022-09-05T05:37:53.039Z,98.38
2022-09-05T05:40:26.259Z,98.75
2022-09-05T05:43:15.010Z,99.13
2022-09-05T05:45:42.949Z,99.12
2022-09-05T05:48:12.876Z,98.88
2022-09-05T05:50:54.442Z,98.48
2022-09-05T05:53:30.388Z,98.30
2022-09-05T05:56:30.998Z,98.41
2022-09-05T05:59:13.045Z,98.29
2022-09-05T06:01:52.421Z,97.90
2022-09-05T06:05:00.724Z,97.78
2022-09-05T06:08:10.238Z,97.95
2022-09-05T06:14:59.829Z,97.80
2022-09-05T06:15:03.764Z,97.73
2022-09-05T06:17:28.398Z,97.08
2022-09-05T06:22:08.689Z,97.20
2022-09-05T06:23:30.810Z,95.67
2022-09-05T06:26:20.992Z,94.30
2022-09-05T06:29:02.938Z,94.10
2022-09-05T06:31:52.898Z,93.04
2022-09-05T06:34:38.576Z,92.53
2022-09-05T06:37:24.916Z,92.43
2022-09-05T06:40:11.832Z,92.12
2022-09-05T06:43:02.551Z,91.38
2022-09-05T06:45:58.619Z,90.41
2022-09-05T06:48:45.540Z,90.19
2022-09-05T06:51:35.612Z,90.31
2022-09-05T06:54:31.436Z,90.39
2022-09-05T06:57:20.304Z,90.08
2022-09-05T07:00:21.697Z,89.57
2022-09-05T07:02:59.331Z,89.70
2022-09-05T07:05:39.421Z,88.53
2022-09-05T07:08:35.201Z,87.73
2022-09-05T07:11:18.382Z,87.52
2022-09-05T07:13:57.233Z,86.97
2022-09-05T07:16:38.091Z,87.11
2022-09-05T07:19:34.514Z,87.08
2022-09-05T07:22:29.558Z,86.60
2022-09-05T07:25:09.611Z,85.16
2022-09-05T07:28:28.302Z,84.60
2022-09-05T07:30:32.842Z,83.78
2022-09-05T07:33:03.550Z,83.08
2022-09-05T07:35:41.386Z,82.54
2022-09-05T07:38:52.082Z,81.72
2022-09-05T07:41:32.707Z,81.34
2022-09-05T07:44:14.049Z,80.31
2022-09-05T07:46:42.306Z,80.16
2022-09-05T07:49:14.555Z,79.13
2022-09-05T07:56:55.662Z,78.23
2022-09-05T07:57:03.721Z,77.26
2022-09-05T07:57:50.996Z,76.39
2022-09-05T08:00:26.864Z,75.77
2022-09-05T08:03:09.202Z,74.84
2022-09-05T08:05:40.807Z,74.22
2022-09-05T08:08:13.322Z,73.04
2022-09-05T08:11:23.217Z,73.18
2022-09-05T08:13:40.020Z,70.88
2022-09-05T08:16:13.624Z,71.15
2022-09-05T08:18:54.641Z,69.07
2022-09-05T08:21:28.169Z,69.13
2022-09-05T08:23:58.046Z,69.69
2022-09-05T08:26:36.697Z,66.94
2022-09-05T08:29:11.175Z,66.61
2022-09-05T08:31:52.453Z,65.39
2022-09-05T08:34:44.921Z,64.22
2022-09-05T08:37:21.135Z,61.97
2022-09-05T08:40:03.869Z,61.92
2022-09-05T08:45:52.017Z,60.65
2022-09-05T08:46:43.899Z,60.52
2022-09-05T08:49:36.885Z,60.23
2022-09-05T08:52:42.919Z,58.28
2022-09-05T08:55:30.359Z,58.08
2022-09-05T08:58:27.412Z,57.79
2022-09-05T09:01:36.853Z,56.27
2022-09-05T09:05:02.175Z,54.52
2022-09-05T09:07:51.535Z,55.21
2022-09-05T09:10:46.880Z,55.22
2022-09-05T09:13:52.204Z,53.70
2022-09-05T09:16:30.282Z,54.23
2022-09-05T09:19:12.162Z,54.29
2022-09-05T09:21:48.766Z,53.35
2022-09-05T09:24:35.783Z,52.53
2022-09-05T09:27:09.268Z,53.48
2022-09-05T09:29:40.035Z,51.91
2022-09-05T09:32:13.570Z,51.83
2022-09-05T09:34:59.749Z,51.51
2022-09-05T09:38:06.792Z,52.12
2022-09-05T09:41:02.412Z,50.41
2022-09-05T09:44:07.849Z,49.91
2022-09-05T09:46:45.390Z,50.72
2022-09-05T09:49:39.253Z,50.41
2022-09-05T09:52:24.917Z,49.95
2022-09-05T09:55:56.281Z,50.04
2022-09-05T09:58:54.222Z,48.62
2022-09-05T10:01:39.440Z,48.21
2022-09-05T10:10:39.008Z,47.50
2022-09-05T10:10:49.914Z,47.48
2022-09-05T10:10:52.398Z,47.19
2022-09-05T10:13:35.831Z,46.85
2022-09-05T10:16:24.618Z,45.79
2022-09-05T10:19:16.984Z,46.12
2022-09-05T10:25:18.765Z,40.14
2022-09-05T10:28:11.771Z,43.88
2022-09-05T10:32:45.343Z,41.89
2022-09-05T10:35:15.252Z,43.02
2022-09-05T10:37:10.808Z,41.46
2022-09-05T10:39:43.562Z,40.73
2022-09-05T10:42:17.097Z,40.19
2022-09-05T10:44:55.945Z,40.82
2022-09-05T10:47:53.802Z,40.25
2022-09-05T10:50:28.966Z,40.72
2022-09-05T10:53:06.446Z,41.86
2022-09-05T10:55:52.406Z,41.92
2022-09-05T11:02:18.707Z,42.67
2022-09-05T11:02:29.554Z,41.59
2022-09-05T11:04:51.207Z,43.03
2022-09-05T11:07:27.879Z,43.04
2022-09-05T11:10:02.901Z,43.00
2022-09-05T11:12:34.000Z,41.27
2022-09-05T11:15:06.618Z,40.52
2022-09-05T11:18:03.804Z,40.21
2022-09-05T11:21:12.129Z,39.67
2022-09-05T11:23:47.568Z,39.25
2022-09-05T11:26:33.579Z,40.11
2022-09-05T11:29:14.088Z,39.61
2022-09-05T11:36:35.289Z,40.23
2022-09-05T11:37:59.705Z,38.60
2022-09-05T11:40:10.677Z,38.55
2022-09-05T11:41:08.479Z,37.83
2022-09-05T11:43:57.430Z,38.34
2022-09-05T11:46:58.346Z,37.97
2022-09-05T11:50:19.415Z,39.65
2022-09-05T11:52:51.374Z,40.52
2022-09-05T11:55:33.135Z,41.18
2022-09-05T11:58:43.842Z,42.24
2022-09-05T12:01:42.228Z,39.48
2022-09-05T12:04:29.422Z,39.34
2022-09-05T12:07:26.355Z,39.58
2022-09-05T12:10:47.280Z,38.42
2022-09-05T12:13:21.733Z,38.57
2022-09-05T12:18:55.124Z,38.03
2022-09-05T12:21:42.527Z,37.59
2022-09-05T12:25:24.153Z,37.63
2022-09-05T12:27:41.088Z,36.98
2022-09-05T12:30:14.187Z,36.37
2022-09-05T12:36:02.885Z,34.74
2022-09-05T12:36:07.543Z,34.24
2022-09-05T12:40:25.373Z,34.92
2022-09-05T12:41:41.217Z,37.19
2022-09-05T12:42:14.678Z,33.66
2022-09-05T12:45:09.128Z,33.21
2022-09-05T12:48:04.038Z,34.81
2022-09-05T12:50:43.274Z,34.26
2022-09-05T12:53:18.346Z,34.42
2022-09-05T12:57:50.335Z,34.23
2022-09-05T13:03:04.769Z,37.44
2022-09-05T13:03:08.221Z,34.84
2022-09-05T13:04:51.268Z,32.68
2022-09-05T13:07:43.998Z,33.54
2022-09-05T13:14:33.493Z,33.87
2022-09-05T13:14:53.765Z,35.82
2022-09-05T13:16:24.922Z,32.63
2022-09-05T13:19:02.246Z,37.74
2022-09-05T13:21:31.178Z,33.09
2022-09-05T13:24:05.116Z,33.70
2022-09-05T13:26:37.898Z,36.44
2022-09-05T13:29:16.046Z,34.54
2022-09-05T13:37:53.927Z,31.09
2022-09-05T13:37:58.216Z,31.76
2022-09-05T13:38:29.263Z,31.90
2022-09-05T13:40:48.834Z,34.43
2022-09-05T13:43:29.552Z,33.79
2022-09-05T13:46:06.313Z,31.46
2022-09-05T13:51:41.596Z,33.05
2022-09-05T13:54:38.182Z,35.26
2022-09-05T13:57:32.362Z,32.24
2022-09-05T14:00:15.401Z,33.20
2022-09-05T14:03:37.961Z,31.80
2022-09-05T14:06:47.126Z,32.59
2022-09-05T14:09:39.297Z,32.25
2022-09-05T14:12:37.264Z,35.44
2022-09-05T14:15:24.873Z,34.66
2022-09-05T14:18:20.471Z,32.96
2022-09-05T14:21:17.283Z,33.86
2022-09-05T14:23:55.951Z,34.76
2022-09-05T14:26:29.104Z,34.14
2022-09-05T14:29:19.555Z,35.01
2022-09-05T14:37:38.656Z,36.47
2022-09-05T14:37:40.298Z,33.07
2022-09-05T14:38:30.272Z,34.29
2022-09-05T14:41:25.619Z,36.08
2022-09-05T14:44:37.842Z,32.06
2022-09-05T14:47:36.290Z,31.12
2022-09-05T14:50:18.294Z,33.98
2022-09-05T14:57:23.074Z,36.58
2022-09-05T15:02:52.292Z,34.95
2022-09-05T15:02:58.665Z,33.32
2022-09-05T15:05:13.323Z,35.72
2022-09-05T15:07:43.932Z,35.58
2022-09-05T15:12:18.511Z,35.32
2022-09-05T15:13:02.973Z,36.29
2022-09-05T15:15:35.760Z,35.43
2022-09-05T15:18:09.983Z,38.11
2022-09-05T15:20:43.829Z,34.45
2022-09-05T15:23:28.317Z,34.74
2022-09-05T15:26:00.989Z,35.24
2022-09-05T15:28:36.034Z,35.01
2022-09-05T15:31:10.530Z,36.61
2022-09-05T15:33:40.718Z,36.31
2022-09-05T15:36:13.333Z,37.00
2022-09-05T15:38:54.868Z,36.40
2022-09-05T15:41:27.824Z,34.08
2022-09-05T15:43:58.313Z,35.34
2022-09-05T15:46:34.244Z,35.41
2022-09-05T15:49:06.470Z,32.67
2022-09-05T15:51:51.644Z,33.16
2022-09-05T15:54:50.391Z,33.38
2022-09-05T15:57:39.921Z,31.41
2022-09-05T16:00:10.209Z,31.07
2022-09-05T16:02:45.924Z,32.72
2022-09-05T16:10:28.408Z,36.79
2022-09-05T16:10:37.063Z,37.50
2022-09-05T16:12:03.491Z,36.40
2022-09-05T16:14:23.890Z,35.33
2022-09-05T16:23:20.711Z,36.99
2022-09-05T16:23:34.524Z,39.09
2022-09-05T16:23:39.296Z,37.80
2022-09-05T16:26:24.954Z,36.01
2022-09-05T16:29:13.275Z,31.18
2022-09-05T16:32:27.537Z,30.81
2022-09-05T16:34:57.663Z,31.11
2022-09-05T16:37:30.015Z,29.57
2022-09-05T16:40:00.025Z,29.53
2022-09-05T16:42:46.065Z,31.26
2022-09-05T16:45:50.152Z,31.99
2022-09-05T16:48:39.049Z,33.52
2022-09-05T16:51:35.827Z,31.40
2022-09-05T16:54:26.247Z,31.28
2022-09-05T16:57:02.479Z,29.63
2022-09-05T16:59:32.875Z,30.82
2022-09-05T17:02:07.363Z,34.05
2022-09-05T17:05:04.383Z,36.10
2022-09-05T17:07:50.972Z,38.63
2022-09-05T17:10:21.606Z,38.27
2022-09-05T17:12:53.129Z,39.89
2022-09-05T17:15:26.189Z,41.21
2022-09-05T17:18:31.854Z,42.13
2022-09-05T17:21:02.762Z,43.19
2022-09-05T17:29:20.504Z,41.17
2022-09-05T17:29:24.590Z,42.48
2022-09-05T17:32:47.161Z,42.66
2022-09-05T17:35:51.487Z,43.23
2022-09-05T17:38:40.437Z,42.85
2022-09-05T17:41:20.325Z,43.32
2022-09-05T17:43:58.450Z,44.75
2022-09-05T17:46:31.829Z,44.51
2022-09-05T17:49:19.131Z,45.68
2022-09-05T17:51:53.246Z,45.58
2022-09-05T17:54:30.597Z,46.82
2022-09-05T17:57:26.463Z,46.54
2022-09-05T17:59:54.918Z,46.90
2022-09-05T18:02:21.951Z,47.33
2022-09-05T18:04:51.522Z,47.29
2022-09-05T18:07:31.045Z,47.80
2022-09-05T18:13:13.713Z,48.58
2022-09-05T18:15:38.347Z,49.15
2022-09-05T18:18:08.657Z,49.74
2022-09-05T18:21:12.296Z,49.86
2022-09-05T18:24:00.381Z,49.65
2022-09-05T18:26:28.317Z,49.58
2022-09-05T18:29:03.891Z,49.77
2022-09-05T18:31:41.463Z,50.08
2022-09-05T18:34:15.607Z,50.06
2022-09-05T18:36:44.237Z,50.81
2022-09-05T18:39:24.632Z,50.11
2022-09-05T18:42:33.841Z,50.48
2022-09-05T18:45:01.046Z,50.42
2022-09-05T18:47:52.745Z,51.47
2022-09-05T18:50:29.212Z,51.61
2022-09-05T18:53:10.340Z,51.93
2022-09-05T18:56:14.287Z,52.44
2022-09-05T18:59:10.117Z,52.87
2022-09-05T19:01:43.538Z,52.73
2022-09-05T19:04:40.868Z,52.91
2022-09-05T19:07:18.558Z,53.69
2022-09-05T19:10:35.527Z,53.76
2022-09-05T19:13:15.691Z,53.53
2022-09-05T19:15:53.299Z,53.90
2022-09-05T19:18:34.870Z,54.04
2022-09-05T19:21:12.521Z,53.91
2022-09-05T19:23:50.344Z,54.89
2022-09-05T19:26:17.844Z,55.75
2022-09-05T19:36:49.723Z,56.29
2022-09-05T19:36:50.138Z,56.29
2022-09-05T19:37:03.296Z,57.45
2022-09-05T19:37:39.946Z,57.43
2022-09-05T19:46:22.420Z,57.81
2022-09-05T19:47:42.235Z,59.26
2022-09-05T19:47:50.283Z,58.25
2022-09-05T19:49:11.980Z,59.66
2022-09-05T19:51:43.682Z,59.28
2022-09-05T19:54:32.239Z,58.72
2022-09-05T19:57:05.815Z,58.97
2022-09-05T19:59:41.945Z,59.25
2022-09-05T20:02:20.161Z,59.12
2022-09-05T20:04:52.873Z,59.63
2022-09-05T20:07:27.235Z,60.20
2022-09-05T20:09:56.103Z,61.13
2022-09-05T20:12:35.739Z,61.20
2022-09-05T20:15:35.897Z,60.73
2022-09-05T20:18:24.500Z,60.57
2022-09-05T20:21:04.076Z,61.91
2022-09-05T20:23:32.190Z,61.40
2022-09-05T20:26:00.822Z,61.41
2022-09-05T20:28:35.689Z,61.61
2022-09-05T20:31:08.942Z,62.63
2022-09-05T20:33:58.370Z,61.91
2022-09-05T20:43:07.737Z,62.56
2022-09-05T20:43:23.804Z,63.01
2022-09-05T20:43:36.696Z,64.41
2022-09-05T20:45:01.132Z,64.96
2022-09-05T20:52:08.860Z,65.59
2022-09-05T20:54:14.764Z,64.98
2022-09-05T20:54:21.138Z,64.71
2022-09-05T20:56:23.412Z,64.95
2022-09-05T20:58:51.578Z,64.92
2022-09-05T21:01:23.417Z,66.14
2022-09-05T21:04:02.470Z,66.70
2022-09-05T21:06:34.484Z,67.14
2022-09-05T21:09:23.829Z,66.94
2022-09-05T21:11:52.675Z,66.16
2022-09-05T21:14:21.537Z,66.92
2022-09-05T21:16:57.300Z,67.31
2022-09-05T21:19:26.737Z,67.72
2022-09-05T21:22:16.379Z,68.71
2022-09-05T21:24:46.437Z,68.75
2022-09-05T21:27:16.602Z,69.45
2022-09-05T21:29:44.485Z,69.70
2022-09-05T21:32:20.713Z,70.25
2022-09-05T21:34:52.089Z,69.67
2022-09-05T21:37:20.871Z,70.12
2022-09-05T21:39:59.753Z,69.79
2022-09-05T21:45:12.677Z,70.66
2022-09-05T21:47:49.748Z,70.14
2022-09-05T21:48:15.546Z,70.77
2022-09-05T21:50:45.451Z,70.60
2022-09-05T21:56:38.675Z,71.16
2022-09-05T21:59:22.716Z,70.88
2022-09-05T21:59:27.971Z,70.90
2022-09-05T22:01:55.283Z,71.72
2022-09-05T22:04:22.521Z,71.67
2022-09-05T22:06:52.935Z,71.01
2022-09-05T22:09:22.267Z,71.74
2022-09-05T22:11:52.722Z,70.11
2022-09-05T22:14:22.189Z,70.94
2022-09-05T22:16:52.127Z,71.05
2022-09-05T22:19:26.211Z,71.17
2022-09-05T22:22:15.672Z,70.61
2022-09-05T22:25:06.261Z,70.41
2022-09-05T22:27:35.342Z,71.96
2022-09-05T22:30:04.344Z,71.34
2022-09-05T22:32:34.471Z,71.52
2022-09-05T22:35:26.846Z,71.67
2022-09-05T22:38:03.514Z,71.26
2022-09-05T22:40:32.676Z,71.20
2022-09-05T22:43:02.243Z,70.75
2022-09-05T22:45:30.907Z,71.96
2022-09-05T22:47:58.779Z,71.85
2022-09-05T22:50:26.748Z,72.53
2022-09-05T22:52:53.857Z,73.05
2022-09-05T22:55:20.927Z,72.80
2022-09-05T22:57:47.993Z,73.26
2022-09-05T23:00:15.326Z,73.50
2022-09-05T23:02:42.351Z,73.33
2022-09-05T23:05:09.622Z,74.00
2022-09-05T23:07:36.675Z,74.25
2022-09-05T23:10:04.032Z,73.78
2022-09-05T23:12:35.886Z,73.23
2022-09-05T23:15:03.311Z,73.63
2022-09-05T23:17:30.422Z,72.71
2022-09-05T23:19:57.558Z,73.18
2022-09-05T23:22:24.631Z,73.67
2022-09-05T23:24:51.747Z,74.06
2022-09-05T23:27:18.760Z,74.06
2022-09-05T23:29:45.803Z,74.27
2022-09-05T23:32:12.842Z,74.27
2022-09-05T23:34:39.854Z,75.10
2022-09-05T23:37:08.680Z,74.20
2022-09-05T23:39:35.796Z,74.35
2022-09-05T23:42:03.148Z,74.61
2022-09-05T23:44:30.217Z,74.33
2022-09-05T23:46:57.318Z,74.42
2022-09-05T23:49:24.365Z,75.56
2022-09-05T23:51:51.424Z,76.20
2022-09-05T23:54:18.516Z,75.59
2022-09-05T23:56:45.639Z,76.32
2022-09-05T23:59:12.802Z,75.35
